Time;durP1;ratioP1;P1;durP2;ratioP2;P2;SDS_P1;SDS_P2;PMS_P1;PMS_P2;Temp;Humidity;BMP_temperature;BMP_pressure;BME280_temperature;BME280_humidity;BME280_pressure;Samples;Min_cycle;Max_cycle;Signal;HPM_P1;HPM_P2
2022/04/13 07:58:12;;;;;;;1.70;1.60;;;;;;;18.15;45.66;100294.01;;;;-57
2022/04/13 08:01:41;;;;;;;2.01;1.59;;;;;;;18.16;45.62;100302.27;;;;-52
2022/04/13 08:08:24;;;;;;;74.19;66.25;;;;;;;18.24;46.58;100312.98;;;;-52
2022/04/13 08:14:24;;;;;;;1.65;1.53;;;;;;;18.17;45.63;100317.55;;;;-52
2022/04/13 08:17:25;;;;;;;119.43;110.81;;;;;;;18.16;45.76;100318.52;;;;-52
2022/04/13 08:20:54;;;;;;;68.75;64.08;;;;;;;18.17;45.68;100317.06;;;;-57
2022/04/13 08:23:54;;;;;;;286.81;263.63;;;;;;;18.16;45.93;100315.41;;;;-51
2022/04/13 08:26:54;;;;;;;120.24;111.32;;;;;;;18.16;45.93;100319.09;;;;-54
2022/04/13 08:32:54;;;;;;;70.48;65.78;;;;;;;18.17;45.88;100322.09;;;;-51
2022/04/13 08:35:54;;;;;;;95.41;88.85;;;;;;;18.18;45.70;100323.98;;;;-52
2022/04/13 08:38:54;;;;;;;214.03;197.95;;;;;;;18.17;45.74;100324.27;;;;-53
2022/04/13 08:41:54;;;;;;;304.18;280.45;;;;;;;18.18;45.83;100317.41;;;;-48
2022/04/13 08:44:24;;;;;;;246.49;227.70;;;;;;;18.18;45.86;100318.14;;;;-51
2022/04/13 08:47:24;;;;;;;126.17;117.11;;;;;;;18.19;45.70;100313.83;;;;-50
2022/04/13 08:50:24;;;;;;;226.45;210.29;;;;;;;18.19;45.83;100307.84;;;;-49
2022/04/13 08:53:54;;;;;;;391.39;360.29;;;;;;;18.19;45.85;100305.97;;;;-50
2022/04/13 08:56:24;;;;;;;402.77;371.99;;;;;;;18.19;45.73;100303.61;;;;-51
2022/04/13 08:59:24;;;;;;;316.29;292.04;;;;;;;18.19;45.74;100302.64;;;;-46
2022/04/13 09:02:25;;;;;;;452.50;414.87;;;;;;;18.20;45.71;100302.26;;;;-45
2022/04/13 09:07:24;;;;;;;476.35;436.04;;;;;;;18.19;45.84;100302.72;;;;-51
2022/04/13 09:10:24;;;;;;;267.45;246.91;;;;;;;18.19;45.71;100305.73;;;;-53
2022/04/13 09:13:25;;;;;;;154.08;142.91;;;;;;;18.19;45.75;100309.62;;;;-58
2022/04/13 09:16:24;;;;;;;422.53;388.17;;;;;;;18.19;45.77;100307.67;;;;-48
2022/04/13 09:19:24;;;;;;;503.47;463.61;;;;;;;18.20;45.73;100308.97;;;;-56
2022/04/13 09:22:24;;;;;;;192.67;179.07;;;;;;;18.18;45.70;100308.41;;;;-49
2022/04/13 09:25:24;;;;;;;558.17;513.57;;;;;;;18.19;45.67;100311.64;;;;-51
2022/04/13 09:28:24;;;;;;;672.61;617.69;;;;;;;18.19;45.77;100313.19;;;;-47
2022/04/13 09:31:24;;;;;;;541.94;496.33;;;;;;;18.18;45.75;100312.45;;;;-56
2022/04/13 09:34:24;;;;;;;613.48;562.26;;;;;;;18.19;45.70;100318.62;;;;-58
2022/04/13 09:37:24;;;;;;;626.45;576.10;;;;;;;18.20;45.72;100324.53;;;;-58
2022/04/13 09:40:24;;;;;;;211.17;193.39;;;;;;;18.20;45.57;100324.86;;;;-51
2022/04/13 09:43:24;;;;;;;2.23;1.42;;;;;;;18.19;45.53;100322.67;;;;-57
2022/04/13 09:46:24;;;;;;;1.74;1.47;;;;;;;18.17;45.51;100317.55;;;;-51
2022/04/13 09:49:24;;;;;;;2.63;1.54;;;;;;;18.17;45.51;100316.41;;;;-51
2022/04/13 09:52:24;;;;;;;3.37;2.39;;;;;;;18.15;45.40;100313.39;;;;-57
2022/04/13 09:55:24;;;;;;;2.63;1.44;;;;;;;18.16;45.39;100319.42;;;;-57
2022/04/13 09:58:25;;;;;;;1.55;1.45;;;;;;;18.14;45.33;100317.61;;;;-57
2022/04/13 10:01:24;;;;;;;1.60;1.50;;;;;;;18.12;45.40;100310.12;;;;-51
2022/04/13 10:04:24;;;;;;;1.55;1.45;;;;;;;18.13;45.26;100309.23;;;;-56
2022/04/13 10:07:25;;;;;;;1.44;1.34;;;;;;;18.12;45.27;100304.38;;;;-56
2022/04/13 10:10:25;;;;;;;1.50;1.40;;;;;;;18.12;45.28;100304.45;;;;-51
2022/04/13 10:13:24;;;;;;;1.50;1.40;;;;;;;18.11;45.13;100298.59;;;;-57
2022/04/13 10:16:24;;;;;;;1.49;1.30;;;;;;;18.10;45.27;100295.34;;;;-56
2022/04/13 10:19:24;;;;;;;1.40;1.30;;;;;;;18.09;45.14;100293.87;;;;-56
2022/04/13 10:22:24;;;;;;;1.61;1.40;;;;;;;18.09;45.18;100294.03;;;;-51
2022/04/13 10:25:26;;;;;;;1.50;1.32;;;;;;;18.08;45.11;100291.19;;;;-51
2022/04/13 10:28:26;;;;;;;1.83;1.33;;;;;;;18.07;45.13;100291.25;;;;-51
2022/04/13 10:31:24;;;;;;;1.56;1.45;;;;;;;18.07;45.05;100287.80;;;;-51
2022/04/13 10:34:24;;;;;;;1.70;1.51;;;;;;;18.06;45.15;100284.28;;;;-51
2022/04/13 10:37:26;;;;;;;1.48;1.38;;;;;;;18.06;45.09;100282.98;;;;-57
2022/04/13 10:40:54;;;;;;;1.41;1.30;;;;;;;18.05;45.15;100275.13;;;;-51
2022/04/13 10:43:24;;;;;;;1.44;1.34;;;;;;;18.06;45.06;100279.42;;;;-57
2022/04/13 10:46:25;;;;;;;1.55;1.45;;;;;;;18.04;45.08;100280.78;;;;-51
2022/04/13 10:49:24;;;;;;;1.86;1.54;;;;;;;18.05;45.02;100284.34;;;;-56
2022/04/13 10:52:24;;;;;;;1.40;1.30;;;;;;;18.03;45.01;100282.61;;;;-56
2022/04/13 10:55:24;;;;;;;1.51;1.41;;;;;;;18.03;45.08;100277.21;;;;-57
2022/04/13 10:58:24;;;;;;;1.82;1.72;;;;;;;18.02;45.06;100274.27;;;;-51
2022/04/13 11:01:24;;;;;;;1.87;1.53;;;;;;;18.03;44.96;100271.75;;;;-56
2022/04/13 11:04:24;;;;;;;2.11;1.51;;;;;;;18.02;45.03;100266.73;;;;-52
2022/04/13 11:07:24;;;;;;;1.50;1.40;;;;;;;18.02;45.01;100262.68;;;;-52
2022/04/13 11:10:24;;;;;;;1.41;1.31;;;;;;;18.01;45.00;100259.09;;;;-57
2022/04/13 11:13:24;;;;;;;1.65;1.50;;;;;;;18.01;45.02;100257.70;;;;-51
2022/04/13 11:16:24;;;;;;;1.68;1.34;;;;;;;18.02;44.91;100257.16;;;;-51
2022/04/13 11:19:24;;;;;;;1.65;1.40;;;;;;;18.00;44.94;100255.03;;;;-52
2022/04/13 11:22:24;;;;;;;1.50;1.40;;;;;;;18.00;44.88;100255.20;;;;-57
2022/04/13 11:25:24;;;;;;;1.51;1.40;;;;;;;17.99;44.99;100252.33;;;;-57
2022/04/13 11:28:24;;;;;;;1.49;1.39;;;;;;;17.99;44.99;100256.63;;;;-52
2022/04/13 11:31:24;;;;;;;2.31;1.40;;;;;;;17.99;45.09;100254.52;;;;-61
2022/04/13 11:34:24;;;;;;;1.50;1.40;;;;;;;18.00;45.16;100251.88;;;;-51
2022/04/13 11:37:24;;;;;;;2.09;1.37;;;;;;;18.01;45.35;100250.33;;;;-51
2022/04/13 11:40:24;;;;;;;2.00;1.49;;;;;;;18.01;45.42;100247.09;;;;-60
2022/04/13 11:43:24;;;;;;;1.67;1.40;;;;;;;18.02;45.50;100248.73;;;;-60
2022/04/13 11:46:24;;;;;;;1.67;1.39;;;;;;;18.03;45.57;100251.16;;;;-50
2022/04/13 11:49:24;;;;;;;3.46;1.60;;;;;;;18.04;45.60;100244.37;;;;-60
2022/04/13 11:52:24;;;;;;;3.34;1.47;;;;;;;18.04;45.50;100239.42;;;;-54
2022/04/13 11:55:24;;;;;;;1.65;1.47;;;;;;;18.04;45.58;100236.17;;;;-52
2022/04/13 11:58:25;;;;;;;2.62;1.40;;;;;;;18.06;46.00;100235.95;;;;-54
2022/04/13 12:01:25;;;;;;;2.67;1.43;;;;;;;18.06;45.61;100237.33;;;;-54
2022/04/13 12:04:54;;;;;;;1.59;1.49;;;;;;;18.06;45.46;100234.74;;;;-51
2022/04/13 12:07:24;;;;;;;3.18;1.54;;;;;;;18.05;45.47;100231.17;;;;-51
2022/04/13 12:10:25;;;;;;;3.72;1.60;;;;;;;18.05;45.44;100232.69;;;;-52
2022/04/13 12:13:24;;;;;;;1.99;1.50;;;;;;;18.04;45.42;100232.69;;;;-50
2022/04/13 12:16:24;;;;;;;2.71;1.43;;;;;;;18.03;45.40;100234.56;;;;-60
2022/04/13 12:19:54;;;;;;;1.87;1.31;;;;;;;18.03;45.35;100229.51;;;;-61
2022/04/13 12:22:24;;;;;;;1.91;1.44;;;;;;;18.02;45.37;100228.30;;;;-60
2022/04/13 12:25:24;;;;;;;1.49;1.37;;;;;;;18.03;45.30;100229.34;;;;-60
2022/04/13 12:28:25;;;;;;;1.72;1.40;;;;;;;18.03;45.24;100225.86;;;;-52
2022/04/13 12:31:27;;;;;;;2.18;1.50;;;;;;;18.02;45.24;100225.30;;;;-51
2022/04/13 12:34:24;;;;;;;1.64;1.50;;;;;;;18.02;45.23;100229.67;;;;-51
2022/04/13 12:37:24;;;;;;;1.70;1.54;;;;;;;18.02;45.26;100233.73;;;;-52
2022/04/13 12:40:55;;;;;;;1.71;1.50;;;;;;;18.01;45.13;100229.09;;;;-53
2022/04/13 13:11:58;;;;;;;2.61;1.44;;;;;;;18.12;45.89;100221.89;;;;-52
2022/04/13 13:14:58;;;;;;;4.77;1.69;;;;;;;18.13;45.91;100219.38;;;;-51
2022/04/13 13:18:00;;;;;;;2.41;1.43;;;;;;;18.13;45.94;100213.30;;;;-51
2022/04/13 13:20:58;;;;;;;2.88;1.60;;;;;;;18.13;45.86;100216.05;;;;-50
2022/04/13 13:24:28;;;;;;;5.89;1.55;;;;;;;18.14;45.93;100213.08;;;;-51
2022/04/13 13:26:58;;;;;;;1.75;1.44;;;;;;;18.14;46.07;100214.05;;;;-50
2022/04/13 13:29:58;;;;;;;3.17;1.51;;;;;;;18.14;45.96;100211.69;;;;-53
2022/04/13 13:33:28;;;;;;;2.74;1.50;;;;;;;18.15;45.99;100209.50;;;;-50
2022/04/13 13:36:29;;;;;;;1.98;1.59;;;;;;;18.15;45.93;100206.01;;;;-51
2022/04/13 13:39:28;;;;;;;3.90;1.59;;;;;;;18.17;45.92;100205.05;;;;-57
2022/04/13 13:41:58;;;;;;;2.60;1.50;;;;;;;18.17;45.75;100201.09;;;;-53
2022/04/13 13:45:02;;;;;;;2.86;1.52;;;;;;;18.17;45.83;100196.30;;;;-52
2022/04/13 13:48:28;;;;;;;2.04;1.68;;;;;;;18.16;45.76;100196.52;;;;-51
2022/04/13 13:51:28;;;;;;;3.37;1.49;;;;;;;18.14;45.69;100195.07;;;;-54
2022/04/13 13:54:29;;;;;;;2.51;1.60;;;;;;;18.13;45.71;100191.88;;;;-54
2022/04/13 13:57:28;;;;;;;3.55;1.40;;;;;;;18.13;45.59;100185.48;;;;-51
2022/04/13 14:00:33;;;;;;;2.08;1.60;;;;;;;18.13;45.67;100185.64;;;;-51
2022/04/13 14:03:02;;;;;;;2.35;1.51;;;;;;;18.12;45.60;100188.58;;;;-51
2022/04/13 14:06:28;;;;;;;3.33;1.57;;;;;;;18.11;45.52;100191.70;;;;-51
2022/04/13 14:09:29;;;;;;;2.43;1.43;;;;;;;18.11;45.55;100191.79;;;;-52
2022/04/13 14:12:29;;;;;;;2.68;1.45;;;;;;;18.10;45.42;100191.80;;;;-57
2022/04/13 14:15:28;;;;;;;4.08;1.67;;;;;;;18.10;45.44;100189.77;;;;-57
2022/04/13 14:18:14;;;;;;;2.43;1.57;;;;;;;18.09;45.41;100190.31;;;;-54
2022/04/13 14:21:29;;;;;;;1.50;1.40;;;;;;;18.09;45.41;100190.56;;;;-50
2022/04/13 14:24:29;;;;;;;3.21;1.57;;;;;;;18.10;45.65;100189.53;;;;-52
2022/04/13 14:27:28;;;;;;;3.47;1.67;;;;;;;18.12;45.78;100192.87;;;;-51
2022/04/13 14:30:29;;;;;;;2.51;1.59;;;;;;;18.11;45.58;100190.81;;;;-51
2022/04/13 14:33:29;;;;;;;2.07;1.50;;;;;;;18.10;45.55;100190.17;;;;-49
2022/04/13 14:36:29;;;;;;;3.40;1.53;;;;;;;18.09;45.51;100189.58;;;;-49
2022/04/13 14:39:18;;;;;;;3.65;1.49;;;;;;;18.09;45.53;100184.96;;;;-58
2022/04/13 14:42:28;;;;;;;1.95;1.52;;;;;;;18.08;45.50;100187.56;;;;-58
2022/04/13 14:45:29;;;;;;;1.81;1.40;;;;;;;18.09;45.43;100189.75;;;;-57
2022/04/13 14:47:59;;;;;;;1.55;1.39;;;;;;;18.08;45.42;100187.80;;;;-58
2022/04/13 14:51:29;;;;;;;2.21;1.51;;;;;;;18.07;45.42;100187.41;;;;-51
2022/04/13 15:14:33;;;;;;;3.25;1.57;;;;;;;18.12;45.43;100185.08;;;;-48
2022/04/13 15:18:03;;;;;;;3.31;1.45;;;;;;;18.13;45.32;100185.72;;;;-47
2022/04/13 15:21:03;;;;;;;3.46;1.46;;;;;;;18.13;45.29;100185.16;;;;-49
2022/04/13 15:24:03;;;;;;;2.54;1.43;;;;;;;18.12;45.31;100188.00;;;;-62
2022/04/13 15:27:03;;;;;;;1.98;1.48;;;;;;;18.11;45.33;100184.73;;;;-50
2022/04/13 15:30:03;;;;;;;3.65;1.51;;;;;;;18.10;45.32;100187.34;;;;-50
2022/04/13 15:33:03;;;;;;;2.46;1.43;;;;;;;18.11;45.27;100187.73;;;;-50
2022/04/13 15:36:03;;;;;;;3.07;1.31;;;;;;;18.08;45.29;100188.05;;;;-50
2022/04/13 15:59:33;;;;;;;1.63;1.41;;;;;;;18.06;45.20;100197.03;;;;-51
2022/04/13 16:02:33;;;;;;;2.35;1.39;;;;;;;18.06;45.23;100198.09;;;;-52
2022/04/13 16:06:03;;;;;;;1.75;1.50;;;;;;;18.06;45.15;100199.06;;;;-51
2022/04/13 16:09:03;;;;;;;2.67;1.56;;;;;;;18.06;45.45;100201.49;;;;-50
2022/04/13 16:46:07;;;;;;;2.35;1.50;;;;;;;18.25;46.36;100207.80;;;;-48
2022/04/13 16:49:07;;;;;;;3.67;1.76;;;;;;;18.26;46.46;100209.90;;;;-51
2022/04/13 16:52:07;;;;;;;3.41;1.61;;;;;;;18.26;46.39;100210.66;;;;-51
2022/04/13 16:55:09;;;;;;;3.79;1.70;;;;;;;18.26;46.49;100216.06;;;;-50
2022/04/13 16:58:08;;;;;;;3.06;1.60;;;;;;;18.26;46.44;100214.39;;;;-57
2022/04/13 17:01:39;;;;;;;6.75;1.67;;;;;;;18.28;46.37;100221.05;;;;-48
2022/04/13 17:04:37;;;;;;;3.58;1.65;;;;;;;18.27;46.34;100220.70;;;;-47
2022/04/13 17:07:38;;;;;;;3.60;1.69;;;;;;;18.26;46.23;100224.28;;;;-47
2022/04/13 17:10:37;;;;;;;2.87;1.67;;;;;;;18.24;46.33;100226.35;;;;-53
2022/04/13 17:13:37;;;;;;;4.92;1.74;;;;;;;18.23;46.20;100227.16;;;;-55
2022/04/13 17:16:40;;;;;;;6.86;1.72;;;;;;;18.23;46.16;100221.57;;;;-58
2022/04/13 17:19:37;;;;;;;2.69;1.61;;;;;;;18.22;46.03;100218.22;;;;-58
2022/04/13 17:22:37;;;;;;;2.37;1.47;;;;;;;18.21;46.04;100220.18;;;;-59
2022/04/13 17:25:37;;;;;;;3.94;1.65;;;;;;;18.21;45.99;100220.34;;;;-59
2022/04/13 17:28:37;;;;;;;4.03;1.75;;;;;;;18.20;45.98;100222.18;;;;-50
2022/04/13 17:31:37;;;;;;;3.21;1.73;;;;;;;18.20;45.89;100225.02;;;;-47
2022/04/13 17:34:38;;;;;;;3.01;1.60;;;;;;;18.19;45.88;100226.41;;;;-48
2022/04/13 17:37:38;;;;;;;2.49;1.67;;;;;;;18.18;45.82;100224.78;;;;-50
2022/04/13 17:40:38;;;;;;;3.11;1.67;;;;;;;18.18;45.82;100224.76;;;;-48
2022/04/13 17:43:37;;;;;;;2.31;1.55;;;;;;;18.17;45.78;100220.55;;;;-48
2022/04/13 17:46:08;;;;;;;2.26;1.52;;;;;;;18.16;45.73;100219.09;;;;-59
2022/04/13 17:49:07;;;;;;;3.67;1.57;;;;;;;18.16;45.75;100219.91;;;;-47
2022/04/13 17:52:08;;;;;;;2.07;1.52;;;;;;;18.16;45.67;100221.44;;;;-47
2022/04/13 17:55:08;;;;;;;1.88;1.50;;;;;;;18.16;45.70;100219.23;;;;-48
2022/04/13 17:58:08;;;;;;;2.19;1.59;;;;;;;18.15;45.65;100221.99;;;;-48
2022/04/13 18:01:08;;;;;;;2.55;1.53;;;;;;;18.14;45.57;100221.27;;;;-48
2022/04/13 18:04:08;;;;;;;2.55;1.52;;;;;;;18.14;45.59;100224.52;;;;-48
2022/04/13 18:07:07;;;;;;;2.61;1.50;;;;;;;18.13;45.62;100224.48;;;;-49
2022/04/13 18:10:08;;;;;;;2.10;1.52;;;;;;;18.13;45.57;100230.56;;;;-47
2022/04/13 18:13:08;;;;;;;1.92;1.40;;;;;;;18.12;45.59;100231.79;;;;-48
2022/04/13 18:16:37;;;;;;;2.26;1.51;;;;;;;18.12;45.59;100239.98;;;;-48
2022/04/13 18:19:38;;;;;;;2.29;1.45;;;;;;;18.12;45.58;100245.01;;;;-48
2022/04/13 18:22:38;;;;;;;4.11;1.67;;;;;;;18.13;45.80;100249.71;;;;-57
2022/04/13 18:25:37;;;;;;;3.36;1.67;;;;;;;18.13;45.75;100253.36;;;;-51
2022/04/13 18:28:08;;;;;;;2.85;1.59;;;;;;;18.13;45.75;100255.79;;;;-59
2022/04/13 18:31:38;;;;;;;3.81;1.51;;;;;;;18.15;46.19;100258.48;;;;-58
2022/04/13 18:34:08;;;;;;;3.65;1.63;;;;;;;18.14;46.13;100256.30;;;;-56
2022/04/13 18:37:08;;;;;;;3.86;1.41;;;;;;;18.15;46.30;100260.03;;;;-54
2022/04/13 18:40:08;;;;;;;2.85;1.44;;;;;;;18.17;46.19;100262.08;;;;-47
2022/04/13 18:43:37;;;;;;;4.81;1.50;;;;;;;18.17;46.23;100263.45;;;;-47
2022/04/13 18:46:37;;;;;;;2.83;1.57;;;;;;;18.18;46.31;100265.75;;;;-52
2022/04/13 19:19:12;;;;;;;3.82;1.53;;;;;;;18.31;46.25;100288.64;;;;-52
2022/04/13 19:22:12;;;;;;;1.86;1.50;;;;;;;18.30;46.24;100290.23;;;;-48
2022/04/13 19:25:14;;;;;;;1.82;1.57;;;;;;;18.31;46.33;100293.91;;;;-49
2022/04/13 19:28:12;;;;;;;2.05;1.51;;;;;;;18.30;46.43;100297.86;;;;-59
2022/04/13 19:31:12;;;;;;;1.57;1.31;;;;;;;18.31;46.33;100298.94;;;;-58
2022/04/13 19:34:12;;;;;;;2.72;1.47;;;;;;;18.31;46.37;100304.22;;;;-56
2022/04/13 19:37:01;;;;;;;1.83;1.52;;;;;;;18.30;46.40;100304.63;;;;-57
2022/04/13 19:40:12;;;;;;;2.01;1.53;;;;;;;18.30;46.39;100311.81;;;;-51
2022/04/13 19:43:12;;;;;;;2.70;1.65;;;;;;;18.31;46.47;100313.05;;;;-54
2022/04/13 19:45:54;;;;;;;1.83;1.41;;;;;;;18.30;46.31;100315.22;;;;-53
2022/04/13 19:49:12;;;;;;;1.55;1.41;;;;;;;18.30;46.39;100315.66;;;;-53
2022/04/13 19:55:12;;;;;;;4.57;1.51;;;;;;;18.31;46.44;100325.39;;;;-59
2022/04/13 19:58:12;;;;;;;2.96;1.57;;;;;;;18.30;46.23;100327.07;;;;-53
2022/04/13 20:01:12;;;;;;;2.76;1.49;;;;;;;18.28;46.29;100331.10;;;;-55
2022/04/13 20:04:12;;;;;;;4.97;1.53;;;;;;;18.26;46.25;100331.77;;;;-57
2022/04/13 20:07:12;;;;;;;3.67;1.57;;;;;;;18.26;46.38;100331.25;;;;-60
2022/04/13 20:10:12;;;;;;;4.08;1.40;;;;;;;18.25;46.36;100336.04;;;;-57
2022/04/13 20:13:12;;;;;;;2.32;1.50;;;;;;;18.24;46.34;100340.55;;;;-58
2022/04/13 20:16:13;;;;;;;2.79;1.53;;;;;;;18.21;46.32;100339.41;;;;-58
2022/04/13 20:18:45;;;;;;;2.11;1.52;;;;;;;18.20;46.30;100340.75;;;;-56
2022/04/13 20:22:12;;;;;;;1.85;1.57;;;;;;;18.18;46.24;100341.00;;;;-53
2022/04/13 20:25:12;;;;;;;1.57;1.41;;;;;;;18.17;46.23;100343.34;;;;-51
2022/04/13 20:28:12;;;;;;;1.75;1.41;;;;;;;18.16;46.17;100345.70;;;;-55
2022/04/13 20:31:12;;;;;;;1.73;1.50;;;;;;;18.15;46.12;100348.50;;;;-51
2022/04/13 20:34:12;;;;;;;1.86;1.55;;;;;;;18.13;46.11;100347.11;;;;-60
2022/04/13 20:50:46;;;;;;;2.42;1.40;;;;;;;18.10;46.00;100346.69;;;;-51
2022/04/13 20:53:46;;;;;;;1.86;1.41;;;;;;;18.08;46.05;100348.77;;;;-58
2022/04/13 20:56:16;;;;;;;1.73;1.42;;;;;;;18.07;46.06;100349.96;;;;-51
2022/04/13 20:59:16;;;;;;;2.03;1.51;;;;;;;18.06;46.01;100347.86;;;;-60
2022/04/13 21:02:16;;;;;;;1.73;1.41;;;;;;;18.05;46.00;100350.22;;;;-59
2022/04/13 21:05:16;;;;;;;3.16;1.50;;;;;;;18.04;46.00;100356.92;;;;-58
2022/04/13 21:08:17;;;;;;;2.19;1.57;;;;;;;18.03;46.04;100357.22;;;;-58
2022/04/13 21:11:47;;;;;;;1.51;1.40;;;;;;;18.03;45.99;100360.70;;;;-55
2022/04/13 21:14:46;;;;;;;2.19;1.50;;;;;;;18.01;46.06;100368.33;;;;-55
2022/04/13 21:17:46;;;;;;;1.82;1.55;;;;;;;18.01;45.98;100373.57;;;;-57
2022/04/13 21:20:46;;;;;;;2.32;1.51;;;;;;;18.00;46.04;100379.58;;;;-52
2022/04/13 21:23:46;;;;;;;1.56;1.46;;;;;;;17.99;46.04;100380.47;;;;-51
2022/04/13 21:26:46;;;;;;;2.03;1.83;;;;;;;17.98;46.03;100380.53;;;;-55
2022/04/13 21:29:46;;;;;;;2.03;1.60;;;;;;;17.97;46.02;100384.34;;;;-55
2022/04/13 21:32:46;;;;;;;1.89;1.50;;;;;;;17.96;46.07;100381.63;;;;-55
2022/04/13 21:35:47;;;;;;;2.20;1.55;;;;;;;17.96;46.00;100377.58;;;;-61
2022/04/13 21:38:46;;;;;;;1.51;1.41;;;;;;;17.95;46.03;100380.96;;;;-53
2022/04/13 21:41:46;;;;;;;1.87;1.62;;;;;;;17.94;46.04;100381.20;;;;-60
2022/04/13 21:44:47;;;;;;;1.67;1.50;;;;;;;17.94;46.02;100388.34;;;;-58
2022/04/13 21:47:17;;;;;;;1.70;1.49;;;;;;;17.93;46.00;100389.13;;;;-58
2022/04/13 21:50:16;;;;;;;2.18;1.59;;;;;;;17.92;46.05;100386.53;;;;-58
2022/04/13 21:53:16;;;;;;;1.60;1.50;;;;;;;17.91;46.01;100385.97;;;;-57
2022/04/13 21:56:16;;;;;;;1.53;1.43;;;;;;;17.91;46.08;100388.24;;;;-55
2022/04/13 21:59:17;;;;;;;1.91;1.51;;;;;;;17.90;46.12;100390.64;;;;-58
2022/04/13 22:02:17;;;;;;;1.85;1.39;;;;;;;17.90;46.04;100392.91;;;;-52
2022/04/13 22:05:16;;;;;;;1.50;1.40;;;;;;;17.89;46.10;100396.00;;;;-51
2022/04/13 22:08:17;;;;;;;1.93;1.51;;;;;;;17.89;46.11;100396.33;;;;-60
2022/04/13 22:11:46;;;;;;;1.61;1.50;;;;;;;17.88;46.14;100402.05;;;;-51
2022/04/13 22:14:46;;;;;;;2.34;1.47;;;;;;;17.87;46.12;100403.44;;;;-51
2022/04/13 22:17:46;;;;;;;1.63;1.53;;;;;;;17.87;46.03;100403.59;;;;-55
2022/04/13 22:20:46;;;;;;;1.87;1.57;;;;;;;17.86;46.11;100409.16;;;;-59
2022/04/13 22:23:46;;;;;;;1.71;1.59;;;;;;;17.86;46.04;100409.73;;;;-58
2022/04/13 22:26:47;;;;;;;1.60;1.50;;;;;;;17.86;46.12;100406.33;;;;-57
2022/04/13 22:29:46;;;;;;;2.15;1.53;;;;;;;17.85;46.09;100398.55;;;;-58
2022/04/13 22:32:17;;;;;;;2.03;1.40;;;;;;;17.84;46.07;100400.13;;;;-58
2022/04/13 22:35:17;;;;;;;1.61;1.48;;;;;;;17.84;46.03;100401.02;;;;-57
2022/04/13 22:38:17;;;;;;;1.56;1.46;;;;;;;17.84;46.13;100404.76;;;;-51
2022/04/13 22:41:17;;;;;;;1.49;1.39;;;;;;;17.83;46.11;100399.41;;;;-51
2022/04/13 22:44:17;;;;;;;2.17;1.49;;;;;;;17.82;46.08;100399.34;;;;-54
2022/04/13 22:47:17;;;;;;;2.21;1.50;;;;;;;17.82;46.11;100397.97;;;;-52
2022/04/13 22:50:17;;;;;;;1.50;1.40;;;;;;;17.81;46.11;100396.44;;;;-51
2022/04/13 22:53:17;;;;;;;1.93;1.46;;;;;;;17.81;46.11;100392.63;;;;-56
2022/04/13 22:56:17;;;;;;;1.85;1.58;;;;;;;17.80;46.16;100391.22;;;;-56
2022/04/13 22:59:17;;;;;;;1.92;1.47;;;;;;;17.80;46.07;100392.92;;;;-55
2022/04/13 23:02:17;;;;;;;1.49;1.39;;;;;;;17.78;46.14;100398.66;;;;-59
2022/04/13 23:05:17;;;;;;;1.73;1.50;;;;;;;17.78;46.19;100404.33;;;;-60
2022/04/13 23:08:17;;;;;;;1.67;1.55;;;;;;;17.77;46.14;100410.65;;;;-58
2022/04/13 23:11:17;;;;;;;2.14;1.60;;;;;;;17.77;46.15;100415.59;;;;-58
2022/04/13 23:14:47;;;;;;;2.71;1.56;;;;;;;17.77;46.17;100415.19;;;;-60
2022/04/13 23:17:16;;;;;;;1.98;1.52;;;;;;;17.76;46.19;100411.59;;;;-59
2022/04/13 23:20:17;;;;;;;2.26;1.55;;;;;;;17.76;46.20;100412.00;;;;-55
2022/04/13 23:23:17;;;;;;;1.82;1.52;;;;;;;17.75;46.17;100413.54;;;;-55
2022/04/13 23:26:17;;;;;;;1.57;1.47;;;;;;;17.75;46.16;100414.19;;;;-57
2022/04/13 23:29:16;;;;;;;2.77;1.70;;;;;;;17.75;46.21;100416.95;;;;-58
2022/04/13 23:32:46;;;;;;;1.76;1.47;;;;;;;17.74;46.07;100418.97;;;;-58
2022/04/13 23:35:47;;;;;;;1.61;1.43;;;;;;;17.73;46.16;100415.78;;;;-57
2022/04/13 23:47:31;;;;;;;1.94;1.59;;;;;;;17.73;46.14;100408.16;;;;-53
2022/04/13 23:50:31;;;;;;;2.42;1.78;;;;;;;17.72;46.10;100409.44;;;;-60
2022/04/13 23:53:35;;;;;;;1.87;1.59;;;;;;;17.72;46.20;100413.48;;;;-60
2022/04/13 23:56:41;;;;;;;;;;;;;;;;;;;;;
2022/04/13 23:59:32;;;;;;;1.51;1.41;;;;;;;17.71;46.16;100420.54;;;;-59
